Main page
METAR-TAF:

METAR-TAF

Airports :

Dundee Airport

Dundee, Scotland

latitude: 56-27N, longitude: 003-01W, elevation: 4 m

Current weather observation

The report was made 12 hours and 22 minutes ago, at 19:20 UTC
Calm wind
Temperature 9°C
Humidity 81%
Pressure 1000 hPa
Visibility 10 km or more
Broken clouds at a height of 3000 ft

METAR: EGPN 041920Z 00000KT 9999 BKN030 09/06 Q1000

Time: 08:42 (07:42 UTC)

Forecast

The report was made 17 hours and 41 minutes ago, at 14:01 UTC
Forecast valid from 04 at 15 UTC to 04 at 19 UTC
Wind 6 kt from the Northeast
Visibility 10 km or more
Scattered clouds at a height of 3000 ft
Probability 30% :
Temporary
from 04 at 15 UTC to 04 at 19 UTC
Visibility: 7000 m
Broken clouds at a height of 900 ft
rain showers

TAF: EGPN 041401Z 0415/0419 04006KT 9999 SCT030 PROB30 TEMPO 0415/0419 7000 SHRA BKN009

Weather observations and forecasts of more than 4000 airports (METAR and TAF reports).

The available stations are represented by yellow and red dots on the map.

Hover mouse over dot to see the name of the station.

Then click to see weather observations and forecasts.

To change the map : click on the green buttons with a black cross to zoom in, on the green button with a dash to zoom out, or on the green arrows for adjacent maps.


METAR-TAF: